createdAt,value
2023-03-10T00:01:28.502Z,12.50
2023-03-10T00:03:57.258Z,12.73
2023-03-10T00:06:27.682Z,18.35
2023-03-10T00:08:55.829Z,11.88
2023-03-10T00:11:23.220Z,6.97
2023-03-10T00:13:50.829Z,4.72
2023-03-10T00:16:24.535Z,6.13
2023-03-10T00:18:52.982Z,6.00
2023-03-10T00:21:25.970Z,4.18
2023-03-10T00:23:54.130Z,5.00
2023-03-10T00:26:22.808Z,5.40
2023-03-10T00:28:51.096Z,8.13
2023-03-10T00:31:21.456Z,9.98
2023-03-10T00:33:49.873Z,10.30
2023-03-10T00:36:23.257Z,5.15
2023-03-10T00:38:51.751Z,7.65
2023-03-10T00:41:22.355Z,9.48
2023-03-10T00:43:49.974Z,7.65
2023-03-10T00:46:18.150Z,2.60
2023-03-10T00:48:45.702Z,1.90
2023-03-10T00:51:16.460Z,9.13
2023-03-10T00:53:46.130Z,4.00
2023-03-10T00:56:18.370Z,4.03
2023-03-10T00:58:47.472Z,7.97
2023-03-10T01:01:16.115Z,4.45
2023-03-10T01:03:44.462Z,6.50
2023-03-10T01:06:13.155Z,7.80
2023-03-10T01:08:40.606Z,4.80
2023-03-10T01:11:08.328Z,8.52
2023-03-10T01:13:36.590Z,16.55
2023-03-10T01:16:04.497Z,6.22
2023-03-10T01:18:31.918Z,6.10
2023-03-10T01:20:59.652Z,13.75
2023-03-10T01:23:27.781Z,14.35
2023-03-10T01:25:55.413Z,13.57
2023-03-10T01:28:23.588Z,10.70
2023-03-10T01:30:51.432Z,10.77
2023-03-10T01:33:18.860Z,2.00
2023-03-10T01:35:46.669Z,4.25
2023-03-10T01:38:14.373Z,2.22
2023-03-10T01:40:49.160Z,9.20
2023-03-10T01:43:31.632Z,5.18
2023-03-10T01:46:02.015Z,7.70
2023-03-10T01:48:35.950Z,3.15
2023-03-10T01:51:04.412Z,5.50
2023-03-10T01:53:33.429Z,4.10
2023-03-10T01:56:04.077Z,2.97
2023-03-10T01:58:39.584Z,4.45
2023-03-10T02:01:08.954Z,5.65
2023-03-10T02:03:44.312Z,2.50
2023-03-10T02:06:15.058Z,1.73
2023-03-10T02:08:47.617Z,6.10
2023-03-10T02:11:15.694Z,5.85
2023-03-10T02:13:43.776Z,6.68
2023-03-10T02:16:12.109Z,4.28
2023-03-10T02:18:43.019Z,5.65
2023-03-10T02:21:28.555Z,5.60
2023-03-10T02:24:14.360Z,3.55
2023-03-10T02:27:17.250Z,9.52
2023-03-10T02:30:01.194Z,4.13
2023-03-10T02:32:38.416Z,9.30
2023-03-10T02:35:07.162Z,10.77
2023-03-10T02:37:40.457Z,4.03
2023-03-10T02:40:37.693Z,10.15
2023-03-10T02:43:30.250Z,5.20
2023-03-10T02:48:46.168Z,4.93
2023-03-10T02:51:26.206Z,5.43
2023-03-10T02:53:55.055Z,3.97
2023-03-10T02:56:23.820Z,6.75
2023-03-10T02:58:51.863Z,7.20
2023-03-10T03:01:19.826Z,5.28
2023-03-10T03:03:47.706Z,4.97
2023-03-10T03:06:15.564Z,9.85
2023-03-10T03:08:45.234Z,7.65
2023-03-10T03:11:17.061Z,2.63
2023-03-10T03:13:45.013Z,7.93
2023-03-10T03:16:13.552Z,6.00
2023-03-10T03:18:41.511Z,3.40
2023-03-10T03:21:15.859Z,13.68
2023-03-10T03:23:46.007Z,5.63
2023-03-10T03:26:19.172Z,2.30
2023-03-10T03:28:47.352Z,5.63
2023-03-10T03:31:20.033Z,7.53
2023-03-10T03:33:49.474Z,2.70
2023-03-10T03:36:18.492Z,7.28
2023-03-10T03:38:46.614Z,4.78
2023-03-10T03:41:15.963Z,7.05
2023-03-10T03:43:43.879Z,11.10
2023-03-10T03:46:11.483Z,8.60
2023-03-10T03:48:39.457Z,4.60
2023-03-10T03:51:09.081Z,8.65
2023-03-10T03:53:41.016Z,9.93
2023-03-10T03:56:09.248Z,9.13
2023-03-10T03:58:38.626Z,8.20
2023-03-10T04:01:06.334Z,4.07
2023-03-10T04:03:42.302Z,6.35
2023-03-10T04:06:13.113Z,9.43
2023-03-10T04:08:42.113Z,7.05
2023-03-10T04:11:09.893Z,7.03
2023-03-10T04:13:41.981Z,7.82
2023-03-10T04:16:10.912Z,8.55
2023-03-10T04:18:40.561Z,9.15
2023-03-10T04:21:11.465Z,11.00
2023-03-10T04:23:42.356Z,19.10
2023-03-10T04:26:12.360Z,15.10
2023-03-10T04:28:41.053Z,12.45
2023-03-10T04:31:16.553Z,23.38
2023-03-10T04:33:45.885Z,13.60
2023-03-10T04:36:14.508Z,33.03
2023-03-10T04:38:43.400Z,18.70
2023-03-10T04:41:12.088Z,32.60
2023-03-10T04:43:47.062Z,23.48
2023-03-10T04:46:15.454Z,20.33
2023-03-10T04:48:43.275Z,21.95
2023-03-10T04:51:13.046Z,39.53
2023-03-10T04:56:16.366Z,34.88
2023-03-10T04:58:44.052Z,34.78
2023-03-10T05:01:13.661Z,40.30
2023-03-10T05:03:46.245Z,30.35
2023-03-10T05:06:16.626Z,27.55
2023-03-10T05:08:48.394Z,24.52
2023-03-10T05:11:18.120Z,25.88
2023-03-10T05:13:45.760Z,24.48
2023-03-10T05:16:21.527Z,27.23
2023-03-10T05:21:22.306Z,17.65
2023-03-10T05:23:51.100Z,17.75
2023-03-10T05:26:19.932Z,15.98
2023-03-10T05:28:48.083Z,15.48
2023-03-10T05:31:25.955Z,15.10
2023-03-10T05:33:58.074Z,16.67
2023-03-10T05:36:25.941Z,14.55
2023-03-10T05:38:53.528Z,12.73
2023-03-10T05:41:20.995Z,12.55
2023-03-10T05:43:52.419Z,10.55
2023-03-10T05:46:20.468Z,10.18
2023-03-10T05:48:56.089Z,11.95
2023-03-10T05:51:24.304Z,9.02
2023-03-10T05:53:51.864Z,11.90
2023-03-10T05:56:24.799Z,14.88
2023-03-10T05:58:56.114Z,16.40
2023-03-10T06:01:29.518Z,12.82
2023-03-10T06:03:57.112Z,10.60
2023-03-10T06:06:24.519Z,14.25
2023-03-10T06:08:51.870Z,13.35
2023-03-10T06:11:19.198Z,16.02
2023-03-10T06:13:46.523Z,19.83
2023-03-10T06:16:13.852Z,12.05
2023-03-10T06:18:41.365Z,9.60
2023-03-10T06:21:11.817Z,11.90
2023-03-10T06:23:39.339Z,10.38
2023-03-10T06:26:13.641Z,9.07
2023-03-10T06:28:43.126Z,10.35
2023-03-10T06:31:22.769Z,6.30
2023-03-10T06:33:51.040Z,7.97
2023-03-10T06:36:18.923Z,7.78
2023-03-10T06:38:47.497Z,7.78
2023-03-10T06:41:16.416Z,7.88
2023-03-10T06:43:43.784Z,6.25
2023-03-10T06:46:12.675Z,6.13
2023-03-10T06:48:41.674Z,5.20
2023-03-10T06:51:11.707Z,6.10
2023-03-10T06:53:39.099Z,5.28
2023-03-10T06:56:10.863Z,5.75
2023-03-10T06:58:38.487Z,2.72
2023-03-10T07:01:07.684Z,3.38
2023-03-10T07:03:36.300Z,3.45
2023-03-10T07:06:04.951Z,3.28
2023-03-10T07:08:32.354Z,4.45
2023-03-10T07:10:59.647Z,1.98
2023-03-10T07:13:27.307Z,3.08
2023-03-10T07:15:54.699Z,2.55
2023-03-10T07:18:22.468Z,3.88
2023-03-10T07:20:49.891Z,5.82
2023-03-10T07:23:17.366Z,4.03
2023-03-10T07:25:44.734Z,4.00
2023-03-10T07:28:12.130Z,4.85
2023-03-10T07:30:39.925Z,4.57
2023-03-10T07:33:07.524Z,4.50
2023-03-10T07:35:37.039Z,6.07
2023-03-10T07:38:05.035Z,2.72
2023-03-10T07:40:33.276Z,5.20
2023-03-10T07:43:00.862Z,7.22
2023-03-10T07:45:30.901Z,5.05
2023-03-10T07:47:58.216Z,4.80
2023-03-10T07:50:25.710Z,5.88
2023-03-10T07:52:53.376Z,3.70
2023-03-10T07:55:20.728Z,2.10
2023-03-10T07:57:48.114Z,1.70
2023-03-10T08:00:16.139Z,3.60
2023-03-10T08:02:46.031Z,4.07
2023-03-10T08:05:14.984Z,6.57
2023-03-10T08:07:43.559Z,2.30
2023-03-10T08:10:11.800Z,2.20
2023-03-10T08:12:39.860Z,4.10
2023-03-10T08:15:08.908Z,1.70
2023-03-10T08:17:36.884Z,8.98
2023-03-10T08:20:06.536Z,5.28
2023-03-10T08:22:33.931Z,3.78
2023-03-10T08:25:02.358Z,8.10
2023-03-10T08:27:30.229Z,2.97
2023-03-10T08:29:57.731Z,2.03
2023-03-10T08:32:25.182Z,5.38
2023-03-10T08:34:52.559Z,1.45
2023-03-10T08:37:19.945Z,3.03
2023-03-10T08:39:47.337Z,5.82
2023-03-10T08:42:14.726Z,6.88
2023-03-10T08:44:42.073Z,2.25
2023-03-10T08:47:09.695Z,1.58
2023-03-10T08:49:37.785Z,2.17
2023-03-10T08:52:05.190Z,4.18
2023-03-10T08:54:32.793Z,3.58
2023-03-10T08:57:00.804Z,5.35
2023-03-10T08:59:28.137Z,7.07
2023-03-10T09:01:55.712Z,7.18
2023-03-10T09:04:23.329Z,3.67
2023-03-10T09:06:51.068Z,3.67
2023-03-10T09:09:19.259Z,2.53
2023-03-10T09:11:46.852Z,2.78
2023-03-10T09:14:17.080Z,2.20
2023-03-10T09:16:44.996Z,1.75
2023-03-10T09:19:12.441Z,2.25
2023-03-10T09:21:42.310Z,2.78
2023-03-10T09:24:09.562Z,2.58
2023-03-10T09:26:36.869Z,3.58
2023-03-10T09:29:05.031Z,5.28
2023-03-10T09:31:35.498Z,1.30
2023-03-10T09:34:03.308Z,1.52
2023-03-10T09:36:31.126Z,3.13
2023-03-10T09:38:59.562Z,2.15
2023-03-10T09:41:35.196Z,1.88
2023-03-10T09:44:22.986Z,1.30
2023-03-10T09:47:10.882Z,1.57
2023-03-10T09:49:56.531Z,2.13
2023-03-10T09:52:28.643Z,1.27
2023-03-10T09:55:13.158Z,3.17
2023-03-10T09:57:40.716Z,0.82
2023-03-10T10:00:11.591Z,1.35
2023-03-10T10:02:47.475Z,0.90
2023-03-10T10:05:27.046Z,1.27
2023-03-10T10:07:57.211Z,3.45
2023-03-10T10:10:28.566Z,3.13
2023-03-10T10:13:01.161Z,0.63
2023-03-10T10:15:34.925Z,2.75
2023-03-10T10:18:20.943Z,0.98
2023-03-10T10:20:54.042Z,1.23
2023-03-10T10:23:49.137Z,1.45
2023-03-10T10:26:26.305Z,1.75
2023-03-10T10:31:26.483Z,1.25
2023-03-10T10:34:01.307Z,0.88
2023-03-10T10:36:35.477Z,1.55
2023-03-10T10:39:18.478Z,2.28
2023-03-10T10:41:45.825Z,0.98
2023-03-10T10:44:17.857Z,1.58
2023-03-10T10:46:56.529Z,1.13
2023-03-10T10:49:29.106Z,1.10
2023-03-10T10:52:05.294Z,1.05
2023-03-10T10:54:39.274Z,1.13
2023-03-10T10:57:18.343Z,4.07
2023-03-10T10:59:46.191Z,1.73
2023-03-10T11:02:34.434Z,3.88
2023-03-10T11:05:37.102Z,0.80
2023-03-10T11:08:39.335Z,4.00
2023-03-10T11:11:14.857Z,1.20
2023-03-10T11:13:51.261Z,1.20
2023-03-10T11:16:36.672Z,1.35
2023-03-10T11:19:28.417Z,0.70
2023-03-10T11:22:03.400Z,0.88
2023-03-10T11:25:03.354Z,2.00
2023-03-10T11:27:49.385Z,1.10
2023-03-10T11:30:31.689Z,0.70
2023-03-10T11:33:31.577Z,0.80
2023-03-10T11:36:55.373Z,1.38
2023-03-10T11:39:53.011Z,0.85
2023-03-10T11:42:36.218Z,1.33
2023-03-10T11:45:18.073Z,3.45
2023-03-10T11:48:01.707Z,2.72
2023-03-10T11:50:55.121Z,4.57
2023-03-10T11:53:46.051Z,1.15
2023-03-10T11:56:15.447Z,4.57
2023-03-10T11:59:00.940Z,3.83
2023-03-10T12:01:38.270Z,3.67
2023-03-10T12:04:21.511Z,9.40
2023-03-10T12:07:00.517Z,2.40
2023-03-10T12:09:49.110Z,8.45
2023-03-10T12:12:23.090Z,3.92
2023-03-10T12:14:52.000Z,3.17
2023-03-10T12:17:19.481Z,5.50
2023-03-10T12:20:12.873Z,2.00
2023-03-10T12:22:46.575Z,3.05
2023-03-10T12:25:29.086Z,3.38
2023-03-10T12:28:28.747Z,2.83
2023-03-10T12:31:04.712Z,3.10
2023-03-10T12:33:37.329Z,7.28
2023-03-10T12:36:21.913Z,2.42
2023-03-10T12:38:53.930Z,3.90
2023-03-10T12:41:26.969Z,3.42
2023-03-10T12:44:23.158Z,3.17
2023-03-10T12:47:08.353Z,2.60
2023-03-10T12:49:41.514Z,2.75
2023-03-10T12:52:39.937Z,17.33
2023-03-10T12:55:24.139Z,3.45
2023-03-10T12:58:00.492Z,3.53
2023-03-10T13:00:50.757Z,3.10
2023-03-10T13:03:29.684Z,2.28
2023-03-10T13:06:18.889Z,3.72
2023-03-10T13:08:49.798Z,2.25
2023-03-10T13:11:20.221Z,2.72
2023-03-10T13:13:50.734Z,5.43
2023-03-10T13:16:20.546Z,3.10
2023-03-10T13:18:53.612Z,2.90
2023-03-10T13:21:33.706Z,2.45
2023-03-10T13:24:04.020Z,7.70
2023-03-10T13:26:31.354Z,3.42
2023-03-10T13:29:04.476Z,3.92
2023-03-10T13:31:33.808Z,3.28
2023-03-10T13:34:20.173Z,2.28
2023-03-10T13:36:48.107Z,3.22
2023-03-10T13:39:27.989Z,2.60
2023-03-10T13:41:59.242Z,5.78
2023-03-10T13:44:34.120Z,4.53
2023-03-10T13:47:04.585Z,7.35
2023-03-10T13:49:36.509Z,5.97
2023-03-10T13:52:07.815Z,5.15
2023-03-10T13:54:37.400Z,1.60
2023-03-10T13:57:31.327Z,2.42
2023-03-10T14:00:00.691Z,10.35
2023-03-10T14:02:29.989Z,2.97
2023-03-10T14:04:58.551Z,4.13
2023-03-10T14:07:28.769Z,6.28
2023-03-10T14:10:05.189Z,1.27
2023-03-10T14:12:41.576Z,1.13
2023-03-10T14:15:14.433Z,6.90
2023-03-10T14:17:43.764Z,2.70
2023-03-10T14:20:32.323Z,4.03
2023-03-10T14:23:00.534Z,0.95
2023-03-10T14:25:28.164Z,2.30
2023-03-10T14:27:59.242Z,5.60
2023-03-10T14:30:30.166Z,2.28
2023-03-10T14:32:58.998Z,1.50
2023-03-10T14:35:28.599Z,1.55
2023-03-10T14:37:56.341Z,5.85
2023-03-10T14:40:25.427Z,4.72
2023-03-10T14:42:54.512Z,1.70
2023-03-10T14:45:29.508Z,2.60
2023-03-10T14:47:59.162Z,9.55
2023-03-10T14:50:28.213Z,4.43
2023-03-10T14:52:55.964Z,4.93
2023-03-10T14:55:23.669Z,5.57
2023-03-10T14:58:00.896Z,1.88
2023-03-10T15:00:28.350Z,1.80
2023-03-10T15:02:56.035Z,3.05
2023-03-10T15:05:41.429Z,2.15
2023-03-10T15:08:14.612Z,1.27
2023-03-10T15:10:44.228Z,1.45
2023-03-10T15:13:14.548Z,3.17
2023-03-10T15:15:44.098Z,2.85
2023-03-10T15:18:17.591Z,2.65
2023-03-10T15:20:45.385Z,2.15
2023-03-10T15:23:19.359Z,2.28
2023-03-10T15:25:47.522Z,7.25
2023-03-10T15:28:14.854Z,2.03
2023-03-10T15:30:42.290Z,4.47
2023-03-10T15:33:10.904Z,3.28
2023-03-10T15:35:39.332Z,11.88
2023-03-10T15:38:07.119Z,9.02
2023-03-10T15:40:36.002Z,8.77
2023-03-10T15:43:03.365Z,4.13
2023-03-10T15:45:31.520Z,3.55
2023-03-10T15:47:59.861Z,3.20
2023-03-10T15:50:27.739Z,5.95
2023-03-10T15:52:57.111Z,6.15
2023-03-10T15:55:25.203Z,7.93
2023-03-10T15:57:53.039Z,7.50
2023-03-10T16:00:22.631Z,4.80
2023-03-10T16:02:51.381Z,4.28
2023-03-10T16:05:19.962Z,4.57
2023-03-10T16:07:47.698Z,10.43
2023-03-10T16:10:17.830Z,4.15
2023-03-10T16:12:45.462Z,6.55
2023-03-10T16:15:15.340Z,5.03
2023-03-10T16:17:44.438Z,3.47
2023-03-10T16:20:12.910Z,7.00
2023-03-10T16:22:41.785Z,5.47
2023-03-10T16:25:18.831Z,7.85
2023-03-10T16:27:46.412Z,3.53
2023-03-10T16:30:18.344Z,5.32
2023-03-10T16:32:50.124Z,10.35
2023-03-10T16:35:18.148Z,4.25
2023-03-10T16:37:45.528Z,6.18
2023-03-10T16:40:13.266Z,3.92
2023-03-10T16:42:43.614Z,4.85
2023-03-10T16:45:11.403Z,7.20
2023-03-10T16:47:39.090Z,3.38
2023-03-10T16:50:06.900Z,3.92
2023-03-10T16:52:39.794Z,4.07
2023-03-10T16:55:09.764Z,5.40
2023-03-10T16:57:37.115Z,7.63
2023-03-10T17:00:05.658Z,6.05
2023-03-10T17:02:33.474Z,3.33
2023-03-10T17:05:00.694Z,7.88
2023-03-10T17:07:27.961Z,4.97
2023-03-10T17:09:55.364Z,7.68
2023-03-10T17:12:22.909Z,9.30
2023-03-10T17:14:50.883Z,7.50
2023-03-10T17:17:18.347Z,7.70
2023-03-10T17:19:45.792Z,5.30
2023-03-10T17:22:14.185Z,6.80
2023-03-10T17:24:41.464Z,8.27
2023-03-10T17:27:08.863Z,2.40
2023-03-10T17:29:36.253Z,8.75
2023-03-10T17:32:03.757Z,12.10
2023-03-10T17:34:31.087Z,11.95
2023-03-10T17:36:58.430Z,6.10
2023-03-10T17:39:27.641Z,10.15
2023-03-10T17:41:54.915Z,12.52
2023-03-10T17:44:22.249Z,7.00
2023-03-10T17:46:52.458Z,11.32
2023-03-10T17:49:19.840Z,4.90
2023-03-10T17:51:47.318Z,2.58
2023-03-10T17:54:17.859Z,7.50
2023-03-10T17:56:45.641Z,4.90
2023-03-10T17:59:14.306Z,13.70
2023-03-10T18:01:43.932Z,9.55
2023-03-10T18:04:11.633Z,9.82
2023-03-10T18:06:38.961Z,9.63
2023-03-10T18:09:08.723Z,20.98
2023-03-10T18:11:36.068Z,12.52
2023-03-10T18:14:04.673Z,5.55
2023-03-10T18:16:37.197Z,12.88
2023-03-10T18:19:05.588Z,7.18
2023-03-10T18:21:33.563Z,12.80
2023-03-10T18:24:00.818Z,12.82
2023-03-10T18:26:30.493Z,17.98
2023-03-10T18:28:59.324Z,14.75
2023-03-10T18:31:29.942Z,14.57
2023-03-10T18:33:57.540Z,11.45
2023-03-10T18:36:25.719Z,8.23
2023-03-10T18:38:54.073Z,18.38
2023-03-10T18:41:26.480Z,19.33
2023-03-10T18:43:54.133Z,9.77
2023-03-10T18:46:22.356Z,8.13
2023-03-10T18:48:55.562Z,12.52
2023-03-10T18:51:25.180Z,7.72
2023-03-10T18:53:53.206Z,36.92
2023-03-10T18:56:20.579Z,16.05
2023-03-10T18:58:47.851Z,17.13
2023-03-10T19:01:15.689Z,9.13
2023-03-10T19:03:43.116Z,17.58
2023-03-10T19:06:10.651Z,17.27
2023-03-10T19:08:39.884Z,6.90
2023-03-10T19:11:07.409Z,11.35
2023-03-10T19:13:35.657Z,10.50
2023-03-10T19:16:10.607Z,13.52
2023-03-10T19:18:38.401Z,17.92
2023-03-10T19:21:06.197Z,14.80
2023-03-10T19:23:34.914Z,24.05
2023-03-10T19:26:03.487Z,17.08
2023-03-10T19:28:31.406Z,14.68
2023-03-10T19:30:59.013Z,11.13
2023-03-10T19:33:26.560Z,13.45
2023-03-10T19:36:05.916Z,32.47
2023-03-10T19:38:38.208Z,16.17
2023-03-10T19:41:10.367Z,16.15
2023-03-10T19:43:37.768Z,17.63
2023-03-10T19:46:07.945Z,19.00
2023-03-10T19:48:35.619Z,21.80
2023-03-10T19:51:05.532Z,32.50
2023-03-10T19:53:33.895Z,32.45
2023-03-10T19:56:06.953Z,25.58
2023-03-10T19:58:38.127Z,26.02
2023-03-10T20:01:05.992Z,24.73
2023-03-10T20:03:34.142Z,15.68
2023-03-10T20:06:02.145Z,17.40
2023-03-10T20:08:29.741Z,19.70
2023-03-10T20:11:02.001Z,21.73
2023-03-10T20:13:32.993Z,13.98
2023-03-10T20:16:02.491Z,18.40
2023-03-10T20:18:32.903Z,19.70
2023-03-10T20:21:03.427Z,12.52
2023-03-10T20:23:34.399Z,12.60
2023-03-10T20:26:14.428Z,14.60
2023-03-10T20:28:45.225Z,12.63
2023-03-10T20:31:18.291Z,9.88
2023-03-10T20:33:46.703Z,23.23
2023-03-10T20:36:15.920Z,18.83
2023-03-10T20:38:45.874Z,18.13
2023-03-10T20:41:15.796Z,15.73
2023-03-10T20:43:44.374Z,20.48
2023-03-10T20:46:12.754Z,14.30
2023-03-10T20:48:40.369Z,20.15
2023-03-10T20:51:07.809Z,15.35
2023-03-10T20:53:38.680Z,26.65
2023-03-10T20:56:11.688Z,27.65
2023-03-10T20:58:39.100Z,19.33
2023-03-10T21:01:07.000Z,23.40
2023-03-10T21:03:34.887Z,27.23
2023-03-10T21:06:02.677Z,31.05
2023-03-10T21:08:30.656Z,29.63
2023-03-10T21:10:58.748Z,23.92
2023-03-10T21:13:27.319Z,20.92
2023-03-10T21:15:55.091Z,18.13
2023-03-10T21:18:22.799Z,23.90
2023-03-10T21:20:50.439Z,20.92
2023-03-10T21:23:17.858Z,21.63
2023-03-10T21:25:45.549Z,28.42
2023-03-10T21:28:13.391Z,19.67
2023-03-10T21:30:41.147Z,19.30
2023-03-10T21:33:09.792Z,34.40
2023-03-10T21:35:40.499Z,21.20
2023-03-10T21:38:07.955Z,20.90
2023-03-10T21:40:35.930Z,18.77
2023-03-10T21:43:03.459Z,17.08
2023-03-10T21:45:33.420Z,27.88
2023-03-10T21:48:00.753Z,17.25
2023-03-10T21:50:28.153Z,26.80
2023-03-10T21:52:55.445Z,17.58
2023-03-10T21:55:24.952Z,30.88
2023-03-10T21:57:52.868Z,24.80
2023-03-10T22:00:23.609Z,32.33
2023-03-10T22:02:52.735Z,26.33
2023-03-10T22:05:20.799Z,22.65
2023-03-10T22:07:48.445Z,20.80
2023-03-10T22:10:17.488Z,25.95
2023-03-10T22:12:44.938Z,27.92
2023-03-10T22:15:17.382Z,64.20
2023-03-10T22:17:45.837Z,37.85
2023-03-10T22:20:18.499Z,31.70
2023-03-10T22:22:45.956Z,22.10
2023-03-10T22:25:14.528Z,26.30
2023-03-10T22:27:43.580Z,33.47
2023-03-10T22:30:13.285Z,25.45
2023-03-10T22:32:42.124Z,26.67
2023-03-10T22:35:10.176Z,24.25
2023-03-10T22:37:39.800Z,21.02
2023-03-10T22:40:17.043Z,22.33
2023-03-10T22:42:45.900Z,24.40
2023-03-10T22:45:25.781Z,16.02
2023-03-10T22:47:56.944Z,20.45
2023-03-10T22:50:45.483Z,29.48
2023-03-10T22:53:16.373Z,25.52
2023-03-10T22:55:46.461Z,23.23
2023-03-10T22:58:16.280Z,37.40
2023-03-10T23:00:44.766Z,27.55
2023-03-10T23:03:13.983Z,27.83
2023-03-10T23:05:47.843Z,31.15
2023-03-10T23:08:16.687Z,36.83
2023-03-10T23:10:44.460Z,32.97
2023-03-10T23:13:18.948Z,34.63
2023-03-10T23:15:46.409Z,24.27
2023-03-10T23:18:21.787Z,29.88
2023-03-10T23:20:50.133Z,61.78
2023-03-10T23:23:18.363Z,31.88
2023-03-10T23:25:47.694Z,33.78
2023-03-10T23:28:15.618Z,30.88
2023-03-10T23:30:45.121Z,29.50
2023-03-10T23:33:15.363Z,41.13
2023-03-10T23:35:43.290Z,30.75
2023-03-10T23:38:10.634Z,32.13
2023-03-10T23:40:38.520Z,31.25
2023-03-10T23:43:06.966Z,35.25
2023-03-10T23:45:38.191Z,35.92
2023-03-10T23:48:08.178Z,63.00
2023-03-10T23:50:38.126Z,38.45
2023-03-10T23:53:07.177Z,26.02
2023-03-10T23:55:38.418Z,42.70
2023-03-10T23:58:06.921Z,32.92
